createdAt,value
2022-09-03T00:00:36.907Z,82.17
2022-09-03T00:01:38.950Z,82.88
2022-09-03T00:02:36.975Z,82.37
2022-09-03T00:03:36.958Z,82.68
2022-09-03T00:04:36.869Z,82.37
2022-09-03T00:05:36.837Z,83.39
2022-09-03T00:06:36.906Z,82.98
2022-09-03T00:07:37.905Z,82.68
2022-09-03T00:08:36.888Z,82.57
2022-09-03T00:09:36.812Z,82.88
2022-09-03T00:10:36.768Z,82.57
2022-09-03T00:11:36.800Z,81.56
2022-09-03T00:12:36.810Z,81.76
2022-09-03T00:13:37.742Z,81.86
2022-09-03T00:14:36.730Z,82.78
2022-09-03T00:15:36.802Z,82.17
2022-09-03T00:16:36.739Z,81.56
2022-09-03T00:17:36.660Z,81.96
2022-09-03T00:18:37.669Z,81.56
2022-09-03T00:19:36.659Z,81.56
2022-09-03T00:20:36.629Z,81.04
2022-09-03T00:21:36.672Z,81.45
2022-09-03T00:22:36.680Z,81.25
2022-09-03T00:23:36.679Z,81.76
2022-09-03T00:24:37.617Z,81.59
2022-09-03T00:25:36.611Z,81.29
2022-09-03T00:26:36.601Z,81.90
2022-09-03T00:27:36.601Z,81.90
2022-09-03T00:28:36.620Z,83.02
2022-09-03T00:29:36.519Z,83.53
2022-09-03T00:30:36.550Z,82.86
2022-09-03T00:31:36.525Z,82.96
2022-09-03T00:32:36.534Z,83.37
2022-09-03T00:33:36.552Z,83.47
2022-09-03T00:34:36.552Z,84.08
2022-09-03T00:35:36.473Z,84.28
2022-09-03T00:36:36.418Z,83.98
2022-09-03T00:37:38.189Z,83.87
2022-09-03T00:38:36.474Z,83.78
2022-09-03T00:39:36.407Z,83.67
2022-09-03T00:40:36.424Z,83.26
2022-09-03T00:41:36.359Z,83.43
2022-09-03T00:42:36.394Z,83.63
2022-09-03T00:43:36.404Z,83.33
2022-09-03T00:44:36.426Z,83.02
2022-09-03T00:45:36.354Z,82.71
2022-09-03T00:46:36.342Z,82.92
2022-09-03T00:47:38.329Z,82.92
2022-09-03T00:48:36.276Z,83.33
2022-09-03T00:49:36.346Z,83.87
2022-09-03T00:50:36.275Z,83.98
2022-09-03T00:51:36.215Z,83.87
2022-09-03T00:52:37.286Z,83.16
2022-09-03T00:53:36.275Z,83.26
2022-09-03T00:54:37.249Z,83.87
2022-09-03T00:55:36.218Z,84.80
2022-09-03T00:56:36.160Z,83.87
2022-09-03T00:57:36.208Z,84.18
2022-09-03T00:58:37.228Z,83.98
2022-09-03T00:59:36.264Z,84.08
2022-09-03T01:00:36.118Z,84.42
2022-09-03T01:01:36.185Z,84.83
2022-09-03T01:02:36.262Z,84.33
2022-09-03T01:03:36.138Z,84.63
2022-09-03T01:04:36.047Z,84.74
2022-09-03T01:05:36.098Z,84.33
2022-09-03T01:06:36.027Z,84.53
2022-09-03T01:07:35.998Z,84.63
2022-09-03T01:08:35.996Z,84.83
2022-09-03T01:09:35.978Z,85.14
2022-09-03T01:10:35.994Z,85.24
2022-09-03T01:11:35.958Z,84.74
2022-09-03T01:12:35.994Z,85.14
2022-09-03T01:13:35.939Z,84.69
2022-09-03T01:14:36.008Z,84.28
2022-09-03T01:15:35.954Z,83.63
2022-09-03T01:16:35.970Z,83.43
2022-09-03T01:17:35.878Z,83.33
2022-09-03T01:18:35.929Z,82.92
2022-09-03T01:19:35.930Z,83.02
2022-09-03T01:20:35.892Z,83.47
2022-09-03T01:21:35.841Z,82.96
2022-09-03T01:22:35.813Z,82.86
2022-09-03T01:23:35.877Z,83.26
2022-09-03T01:24:35.885Z,83.78
2022-09-03T01:25:35.817Z,83.47
2022-09-03T01:26:35.784Z,83.78
2022-09-03T01:27:35.751Z,83.98
2022-09-03T01:28:37.779Z,84.49
2022-09-03T01:29:35.794Z,85.10
2022-09-03T01:30:35.733Z,84.28
2022-09-03T01:31:35.712Z,84.49
2022-09-03T01:32:35.702Z,83.67
2022-09-03T01:34:45.897Z,83.16
2022-09-03T01:35:45.917Z,82.71
2022-09-03T01:36:45.887Z,83.12
2022-09-03T01:37:45.888Z,82.82
2022-09-03T01:38:45.858Z,82.71
2022-09-03T01:39:47.947Z,82.51
2022-09-03T01:40:45.849Z,82.51
2022-09-03T01:41:45.818Z,82.51
2022-09-03T01:42:45.798Z,82.21
2022-09-03T01:43:45.843Z,82.31
2022-09-03T01:44:46.870Z,82.10
2022-09-03T01:45:51.767Z,81.80
2022-09-03T01:46:46.846Z,81.80
2022-09-03T01:47:45.719Z,82.00
2022-09-03T01:48:45.776Z,82.21
2022-09-03T01:49:45.713Z,82.71
2022-09-03T01:50:45.708Z,82.82
2022-09-03T01:51:45.669Z,82.86
2022-09-03T01:52:45.708Z,82.51
2022-09-03T01:53:45.664Z,82.61
2022-09-03T01:54:45.699Z,82.51
2022-09-03T01:55:45.630Z,83.16
2022-09-03T01:56:46.651Z,82.51
2022-09-03T01:57:45.638Z,82.86
2022-09-03T01:58:45.650Z,82.75
2022-09-03T01:59:45.641Z,82.55
2022-09-03T02:00:45.593Z,82.86
2022-09-03T02:01:45.704Z,83.67
2022-09-03T02:03:06.548Z,83.37
2022-09-03T02:03:45.502Z,83.57
2022-09-03T02:04:45.490Z,83.47
2022-09-03T02:05:45.524Z,83.57
2022-09-03T02:06:45.601Z,84.22
2022-09-03T02:07:45.495Z,84.01
2022-09-03T02:08:45.494Z,84.22
2022-09-03T02:09:45.463Z,84.12
2022-09-03T02:10:45.440Z,84.98
2022-09-03T02:11:45.514Z,84.77
2022-09-03T02:12:45.433Z,85.49
2022-09-03T02:13:45.385Z,84.88
2022-09-03T02:14:45.433Z,84.57
2022-09-03T02:15:45.528Z,84.57
2022-09-03T02:16:45.355Z,84.98
2022-09-03T02:17:45.355Z,84.88
2022-09-03T02:18:45.304Z,85.49
2022-09-03T02:19:47.335Z,85.53
2022-09-03T02:20:45.405Z,85.83
2022-09-03T02:21:45.391Z,86.76
2022-09-03T02:22:45.293Z,86.65
2022-09-03T02:23:45.295Z,86.76
2022-09-03T02:24:46.326Z,86.04
2022-09-03T02:25:46.270Z,86.04
2022-09-03T02:26:45.306Z,86.14
2022-09-03T02:27:52.710Z,86.55
2022-09-03T02:28:45.188Z,86.04
2022-09-03T02:29:45.158Z,85.94
2022-09-03T02:30:45.283Z,86.44
2022-09-03T02:31:45.166Z,86.35
2022-09-03T02:32:45.140Z,86.44
2022-09-03T02:33:45.137Z,86.14
2022-09-03T02:34:45.110Z,86.55
2022-09-03T02:35:45.104Z,86.76
2022-09-03T02:36:45.069Z,86.76
2022-09-03T02:37:45.093Z,86.79
2022-09-03T02:38:45.063Z,86.79
2022-09-03T02:39:45.143Z,87.00
2022-09-03T02:40:45.060Z,87.10
2022-09-03T02:41:45.010Z,87.10
2022-09-03T02:42:45.023Z,86.79
2022-09-03T02:43:45.059Z,87.30
2022-09-03T02:44:44.970Z,87.71
2022-09-03T02:45:45.020Z,87.41
2022-09-03T02:46:44.956Z,88.12
2022-09-03T02:47:44.981Z,88.23
2022-09-03T02:48:45.005Z,87.92
2022-09-03T02:49:44.913Z,87.92
2022-09-03T02:50:44.951Z,87.61
2022-09-03T02:51:44.903Z,87.71
2022-09-03T02:52:44.913Z,87.61
2022-09-03T02:53:44.887Z,87.20
2022-09-03T02:54:44.831Z,87.10
2022-09-03T02:55:44.885Z,87.51
2022-09-03T02:56:44.889Z,87.71
2022-09-03T02:57:44.796Z,86.79
2022-09-03T02:58:44.817Z,87.00
2022-09-03T02:59:44.784Z,87.10
2022-09-03T03:00:44.854Z,87.51
2022-09-03T03:01:46.625Z,87.71
2022-09-03T03:02:44.867Z,87.51
2022-09-03T03:03:46.766Z,87.30
2022-09-03T03:04:44.714Z,87.45
2022-09-03T03:05:44.724Z,87.96
2022-09-03T03:06:47.623Z,87.96
2022-09-03T03:07:44.721Z,87.85
2022-09-03T03:08:44.667Z,88.57
2022-09-03T03:09:45.662Z,88.88
2022-09-03T03:10:44.671Z,88.98
2022-09-03T03:11:44.645Z,89.29
2022-09-03T03:12:44.653Z,89.09
2022-09-03T03:13:44.658Z,89.39
2022-09-03T03:14:44.589Z,89.18
2022-09-03T03:15:44.575Z,88.88
2022-09-03T03:16:44.662Z,88.88
2022-09-03T03:17:44.587Z,89.09
2022-09-03T03:18:44.532Z,88.98
2022-09-03T03:19:44.611Z,89.09
2022-09-03T03:20:44.518Z,89.80
2022-09-03T03:21:44.526Z,89.59
2022-09-03T03:22:44.509Z,89.09
2022-09-03T03:23:44.529Z,88.98
2022-09-03T03:24:44.545Z,88.98
2022-09-03T03:25:46.519Z,89.50
2022-09-03T03:26:44.443Z,89.18
2022-09-03T03:27:44.478Z,88.98
2022-09-03T03:28:44.463Z,88.88
2022-09-03T03:29:44.457Z,89.09
2022-09-03T03:30:44.485Z,89.29
2022-09-03T03:31:44.488Z,89.53
2022-09-03T03:32:44.380Z,89.23
2022-09-03T03:33:44.390Z,89.12
2022-09-03T03:34:44.390Z,89.12
2022-09-03T03:35:44.336Z,88.92
2022-09-03T03:36:44.408Z,89.23
2022-09-03T03:37:44.341Z,89.43
2022-09-03T03:38:44.314Z,89.23
2022-09-03T03:39:44.391Z,89.09
2022-09-03T03:40:44.251Z,88.88
2022-09-03T03:41:44.350Z,88.68
2022-09-03T03:42:44.241Z,88.47
2022-09-03T03:43:44.251Z,88.57
2022-09-03T03:44:44.266Z,88.37
2022-09-03T03:45:44.304Z,88.57
2022-09-03T03:46:44.302Z,88.78
2022-09-03T03:47:44.172Z,88.23
2022-09-03T03:48:46.264Z,88.12
2022-09-03T03:49:44.183Z,87.71
2022-09-03T04:03:24.850Z,87.00
2022-09-03T04:04:24.820Z,86.79
2022-09-03T04:05:24.879Z,86.69
2022-09-03T04:06:24.841Z,87.10
2022-09-03T04:07:24.870Z,87.20
2022-09-03T04:08:25.791Z,86.96
2022-09-03T04:09:24.759Z,86.85
2022-09-03T04:10:24.750Z,86.24
2022-09-03T04:11:24.744Z,86.24
2022-09-03T04:12:24.782Z,86.85
2022-09-03T04:13:24.804Z,86.49
2022-09-03T04:14:24.690Z,86.38
2022-09-03T04:15:24.750Z,87.20
2022-09-03T04:16:24.764Z,86.69
2022-09-03T04:17:25.390Z,86.90
2022-09-03T04:18:24.967Z,86.85
2022-09-03T04:19:24.622Z,86.76
2022-09-03T04:20:24.617Z,85.94
2022-09-03T04:21:24.602Z,85.38
2022-09-03T04:22:24.592Z,85.38
2022-09-03T04:23:24.579Z,85.08
2022-09-03T04:24:24.681Z,84.88
2022-09-03T04:25:24.616Z,84.88
2022-09-03T04:26:24.578Z,84.67
2022-09-03T04:27:24.531Z,84.88
2022-09-03T04:28:25.357Z,84.88
2022-09-03T04:29:24.595Z,85.08
2022-09-03T04:30:24.632Z,85.28
2022-09-03T04:31:24.476Z,85.08
2022-09-03T04:32:24.517Z,85.42
2022-09-03T04:33:24.524Z,85.53
2022-09-03T04:34:24.537Z,86.14
2022-09-03T04:35:24.435Z,86.35
2022-09-03T04:36:24.476Z,86.35
2022-09-03T04:37:24.444Z,86.24
2022-09-03T04:38:24.543Z,86.44
2022-09-03T04:39:24.490Z,86.24
2022-09-03T04:40:24.408Z,86.14
2022-09-03T04:41:24.407Z,86.24
2022-09-03T04:42:24.375Z,86.00
2022-09-03T04:43:24.317Z,85.59
2022-09-03T04:44:24.398Z,85.28
2022-09-03T04:45:24.344Z,84.94
2022-09-03T04:46:24.349Z,84.74
2022-09-03T04:47:24.307Z,84.33
2022-09-03T04:48:24.386Z,84.22
2022-09-03T04:49:24.331Z,84.01
2022-09-03T04:50:24.264Z,83.92
2022-09-03T04:51:24.242Z,83.92
2022-09-03T04:52:24.239Z,84.01
2022-09-03T04:53:24.191Z,83.98
2022-09-03T04:54:46.172Z,83.78
2022-09-03T04:55:24.173Z,83.78
2022-09-03T04:56:24.142Z,83.57
2022-09-03T04:57:24.172Z,83.67
2022-09-03T04:58:24.196Z,83.67
2022-09-03T04:59:24.188Z,84.08
2022-09-03T05:00:24.141Z,83.98
2022-09-03T05:01:24.309Z,83.57
2022-09-03T05:02:24.161Z,83.67
2022-09-03T05:03:24.110Z,83.43
2022-09-03T05:04:24.029Z,83.02
2022-09-03T05:05:24.087Z,82.51
2022-09-03T05:06:24.004Z,82.31
2022-09-03T05:07:23.998Z,82.31
2022-09-03T05:08:24.057Z,82.51
2022-09-03T05:09:31.505Z,82.71
2022-09-03T05:10:23.965Z,83.12
2022-09-03T05:11:24.985Z,83.33
2022-09-03T05:12:23.965Z,83.43
2022-09-03T05:13:23.987Z,83.78
2022-09-03T05:14:23.978Z,83.98
2022-09-03T05:15:23.915Z,84.28
2022-09-03T05:17:37.607Z,84.49
2022-09-03T05:18:57.213Z,84.59
2022-09-03T05:19:55.150Z,84.80
2022-09-03T05:20:34.281Z,84.49
2022-09-03T05:21:55.160Z,84.25
2022-09-03T05:22:34.081Z,84.25
2022-09-03T05:23:37.630Z,84.04
2022-09-03T05:24:36.069Z,84.45
2022-09-03T05:25:36.092Z,84.28
2022-09-03T05:26:34.104Z,84.28
2022-09-03T05:27:34.023Z,85.21
2022-09-03T05:28:34.021Z,85.92
2022-09-03T05:29:33.964Z,86.33
2022-09-03T05:30:33.959Z,86.06
2022-09-03T05:31:34.087Z,86.06
2022-09-03T05:32:33.952Z,85.79
2022-09-03T05:33:36.042Z,86.71
2022-09-03T05:34:33.963Z,86.61
2022-09-03T05:35:33.923Z,87.02
2022-09-03T05:36:33.971Z,87.32
2022-09-03T05:37:33.893Z,87.63
2022-09-03T05:38:33.883Z,88.04
2022-09-03T05:39:33.926Z,87.79
2022-09-03T05:40:33.928Z,88.00
2022-09-03T05:41:33.917Z,88.00
2022-09-03T05:42:33.803Z,87.79
2022-09-03T05:43:34.853Z,87.49
2022-09-03T05:44:33.824Z,88.20
2022-09-03T05:45:34.012Z,88.31
2022-09-03T05:46:33.773Z,87.85
2022-09-03T05:47:34.775Z,87.96
2022-09-03T05:48:33.754Z,87.76
2022-09-03T05:49:33.713Z,88.26
2022-09-03T05:50:33.697Z,87.85
2022-09-03T05:51:33.706Z,87.24
2022-09-03T05:52:34.703Z,87.24
2022-09-03T05:53:33.686Z,86.73
2022-09-03T05:54:33.648Z,86.59
2022-09-03T05:55:33.725Z,86.80
2022-09-03T05:56:33.712Z,87.41
2022-09-03T05:57:34.634Z,87.00
2022-09-03T05:58:33.617Z,86.69
2022-09-03T05:59:33.629Z,86.80
2022-09-03T06:00:33.689Z,86.55
2022-09-03T06:01:33.635Z,85.63
2022-09-03T06:02:33.604Z,85.43
2022-09-03T06:03:33.674Z,84.88
2022-09-03T06:04:33.558Z,85.39
2022-09-03T06:05:33.595Z,84.78
2022-09-03T06:06:33.563Z,85.28
2022-09-03T06:07:33.566Z,84.67
2022-09-03T06:08:55.508Z,84.12
2022-09-03T06:09:33.478Z,83.72
2022-09-03T06:10:40.707Z,83.82
2022-09-03T06:11:34.432Z,83.42
2022-09-03T06:12:33.499Z,83.07
2022-09-03T06:13:33.502Z,83.17
2022-09-03T06:14:33.409Z,83.07
2022-09-03T06:15:33.402Z,82.56
2022-09-03T06:16:33.469Z,82.56
2022-09-03T06:17:33.460Z,82.35
2022-09-03T06:18:33.370Z,81.81
2022-09-03T06:19:33.450Z,81.30
2022-09-03T06:20:37.006Z,81.71
2022-09-03T06:21:33.381Z,82.42
2022-09-03T06:22:33.371Z,81.98
2022-09-03T06:23:33.376Z,81.26
2022-09-03T06:24:33.261Z,80.76
2022-09-03T06:25:33.281Z,80.00
2022-09-03T06:26:33.328Z,80.41
2022-09-03T06:27:33.306Z,80.72
2022-09-03T06:28:33.323Z,80.72
2022-09-03T06:29:33.203Z,81.73
2022-09-03T06:30:33.212Z,81.43
2022-09-03T06:31:33.311Z,79.97
2022-09-03T06:32:33.242Z,79.46
2022-09-03T06:33:33.243Z,79.16
2022-09-03T06:34:33.142Z,79.02
2022-09-03T06:35:37.618Z,79.02
2022-09-03T06:36:34.124Z,79.32
2022-09-03T06:37:33.104Z,79.52
2022-09-03T06:38:33.172Z,79.22
2022-09-03T06:39:33.156Z,79.22
2022-09-03T06:40:33.131Z,79.52
2022-09-03T06:41:33.081Z,79.02
2022-09-03T06:42:33.035Z,78.88
2022-09-03T06:43:33.016Z,78.47
2022-09-03T06:44:33.126Z,78.03
2022-09-03T06:45:33.073Z,76.71
2022-09-03T06:46:33.239Z,76.06
2022-09-03T06:47:33.746Z,76.06
2022-09-03T06:48:33.967Z,75.32
2022-09-03T06:49:32.929Z,75.01
2022-09-03T06:50:34.737Z,74.68
2022-09-03T06:51:32.999Z,74.68
2022-09-03T06:52:32.988Z,74.17
2022-09-03T06:53:32.978Z,74.27
2022-09-03T06:54:33.008Z,73.86
2022-09-03T06:55:32.880Z,73.32
2022-09-03T06:56:37.310Z,73.83
2022-09-03T06:57:33.930Z,73.63
2022-09-03T06:58:32.899Z,73.83
2022-09-03T06:59:32.900Z,74.33
2022-09-03T07:00:32.829Z,74.95
2022-09-03T07:01:32.917Z,75.18
2022-09-03T07:02:32.780Z,74.74
2022-09-03T07:03:32.763Z,74.24
2022-09-03T07:04:32.840Z,75.25
2022-09-03T07:05:32.768Z,74.44
2022-09-03T07:06:32.792Z,74.30
2022-09-03T07:07:32.712Z,74.10
2022-09-03T07:08:32.771Z,73.69
2022-09-03T07:09:32.763Z,73.90
2022-09-03T07:10:32.782Z,73.19
2022-09-03T07:11:32.693Z,74.47
2022-09-03T07:12:32.748Z,72.95
2022-09-03T07:13:32.692Z,72.61
2022-09-03T07:14:32.711Z,73.32
2022-09-03T07:15:32.712Z,72.41
2022-09-03T07:16:32.697Z,72.72
2022-09-03T07:17:34.604Z,72.31
2022-09-03T07:18:32.593Z,72.81
2022-09-03T07:19:32.643Z,73.83
2022-09-03T07:20:32.644Z,72.81
2022-09-03T07:21:32.565Z,71.70
2022-09-03T07:22:32.586Z,72.08
2022-09-03T07:23:32.492Z,71.97
2022-09-03T07:24:32.519Z,71.26
2022-09-03T07:25:32.475Z,70.86
2022-09-03T07:26:32.466Z,71.33
2022-09-03T07:27:32.456Z,71.03
2022-09-03T07:28:33.527Z,70.93
2022-09-03T07:29:33.551Z,71.33
2022-09-03T07:30:32.425Z,70.62
2022-09-03T07:31:32.466Z,69.78
2022-09-03T07:32:32.484Z,69.58
2022-09-03T07:33:33.858Z,69.95
2022-09-03T07:34:32.449Z,69.35
2022-09-03T07:35:32.379Z,69.04
2022-09-03T07:36:35.401Z,69.45
2022-09-03T07:37:32.398Z,69.75
2022-09-03T07:38:32.402Z,69.15
2022-09-03T07:39:32.407Z,69.65
2022-09-03T07:40:33.306Z,69.55
2022-09-03T07:41:32.289Z,70.42
2022-09-03T07:42:32.339Z,70.12
2022-09-03T07:43:32.299Z,69.72
2022-09-03T07:44:32.258Z,69.42
2022-09-03T07:45:32.310Z,70.02
2022-09-03T07:46:32.226Z,69.21
2022-09-03T07:47:32.342Z,69.99
2022-09-03T07:48:36.680Z,69.38
2022-09-03T07:49:33.270Z,68.88
2022-09-03T07:50:32.240Z,68.37
2022-09-03T07:51:32.145Z,67.63
2022-09-03T07:52:32.149Z,68.24
2022-09-03T07:53:32.120Z,67.74
2022-09-03T07:54:32.101Z,68.65
2022-09-03T07:55:32.205Z,68.74
2022-09-03T07:56:32.180Z,68.34
2022-09-03T07:57:32.079Z,68.44
2022-09-03T07:58:32.101Z,67.74
2022-09-03T07:59:32.102Z,70.26
2022-09-03T08:00:32.149Z,67.91
2022-09-03T08:01:32.125Z,66.90
2022-09-03T08:02:35.325Z,67.60
2022-09-03T08:03:32.083Z,67.00
2022-09-03T08:04:32.045Z,66.67
2022-09-03T08:05:32.047Z,66.06
2022-09-03T08:06:32.062Z,66.36
2022-09-03T08:07:31.991Z,66.77
2022-09-03T08:08:35.541Z,66.56
2022-09-03T08:09:32.997Z,67.37
2022-09-03T08:10:31.975Z,67.97
2022-09-03T08:11:32.003Z,67.37
2022-09-03T08:12:31.936Z,67.00
2022-09-03T08:13:31.895Z,65.56
2022-09-03T08:14:32.916Z,66.16
2022-09-03T08:15:31.905Z,64.55
2022-09-03T08:16:31.914Z,65.36
2022-09-03T08:17:31.824Z,65.86
2022-09-03T08:18:31.826Z,66.67
2022-09-03T08:19:31.789Z,66.56
2022-09-03T08:20:33.815Z,66.43
2022-09-03T08:21:31.838Z,65.73
2022-09-03T08:22:31.808Z,65.73
2022-09-03T08:23:31.767Z,65.22
2022-09-03T08:24:31.776Z,64.69
2022-09-03T08:25:31.700Z,64.09
2022-09-03T08:26:31.710Z,63.59
2022-09-03T08:27:31.751Z,63.45
2022-09-03T08:28:31.707Z,63.45
2022-09-03T08:29:31.708Z,62.75
2022-09-03T08:30:31.697Z,62.82
2022-09-03T08:31:31.759Z,62.52
2022-09-03T08:32:31.629Z,62.52
2022-09-03T08:33:31.601Z,62.29
2022-09-03T08:34:31.593Z,61.58
2022-09-03T08:35:31.571Z,60.55
2022-09-03T08:36:31.638Z,61.05
2022-09-03T08:37:31.640Z,60.05
2022-09-03T08:38:32.613Z,60.25
2022-09-03T08:39:31.607Z,60.62
2022-09-03T08:40:31.569Z,61.52
2022-09-03T08:41:31.573Z,62.03
2022-09-03T08:42:33.552Z,61.93
2022-09-03T08:43:31.507Z,61.96
2022-09-03T08:44:31.494Z,61.96
2022-09-03T08:45:31.522Z,60.45
2022-09-03T08:46:31.564Z,60.68
2022-09-03T08:47:31.456Z,61.18
2022-09-03T08:48:31.443Z,61.79
2022-09-03T08:49:31.414Z,61.69
2022-09-03T08:50:31.445Z,61.88
2022-09-03T08:51:32.464Z,63.73
2022-09-03T08:52:31.436Z,62.52
2022-09-03T08:53:31.357Z,62.52
2022-09-03T08:54:31.327Z,64.13
2022-09-03T08:55:31.328Z,65.33
2022-09-03T08:56:31.311Z,66.84
2022-09-03T08:57:31.396Z,65.94
2022-09-03T08:58:31.314Z,65.23
2022-09-03T08:59:32.837Z,63.73
2022-09-03T09:00:32.353Z,63.09
2022-09-03T09:01:31.276Z,62.19
2022-09-03T09:02:31.311Z,62.59
2022-09-03T09:03:31.257Z,62.49
2022-09-03T09:04:31.199Z,62.76
2022-09-03T09:05:31.219Z,62.56
2022-09-03T09:06:32.258Z,62.26
2022-09-03T09:07:31.228Z,63.17
2022-09-03T09:08:31.190Z,63.03
2022-09-03T09:09:31.151Z,63.23
2022-09-03T09:10:31.152Z,62.03
2022-09-03T09:11:31.152Z,61.72
2022-09-03T09:12:41.167Z,61.43
2022-09-03T09:13:32.129Z,61.19
2022-09-03T09:14:31.082Z,62.00
2022-09-03T09:15:31.400Z,61.30
2022-09-03T09:16:31.124Z,61.50
2022-09-03T09:17:31.100Z,61.47
2022-09-03T09:18:31.044Z,61.47
2022-09-03T09:19:31.018Z,60.03
2022-09-03T09:20:30.994Z,59.11
2022-09-03T09:21:31.019Z,59.20
2022-09-03T09:22:30.972Z,58.40
2022-09-03T09:23:31.072Z,58.58
2022-09-03T09:24:31.040Z,58.78
2022-09-03T09:25:30.956Z,58.65
2022-09-03T09:26:30.982Z,57.42
2022-09-03T09:27:30.963Z,56.82
2022-09-03T09:28:30.966Z,56.39
2022-09-03T09:29:31.017Z,56.39
2022-09-03T09:30:30.889Z,56.46
2022-09-03T09:31:31.116Z,55.17
2022-09-03T09:32:30.916Z,54.97
2022-09-03T09:33:30.834Z,55.19
2022-09-03T09:34:30.846Z,55.69
2022-09-03T09:35:30.815Z,57.12
2022-09-03T09:36:30.825Z,57.15
2022-09-03T09:37:30.841Z,57.15
2022-09-03T09:38:30.846Z,57.15
2022-09-03T09:39:31.821Z,56.82
2022-09-03T09:40:31.787Z,57.72
2022-09-03T09:41:30.772Z,57.72
2022-09-03T09:42:30.769Z,57.79
2022-09-03T09:43:30.721Z,57.09
2022-09-03T09:44:30.814Z,57.09
2022-09-03T09:45:30.697Z,55.47
2022-09-03T09:46:30.776Z,55.36
2022-09-03T09:47:30.723Z,54.77
2022-09-03T10:03:52.173Z,53.96
2022-09-03T10:04:52.155Z,50.57
2022-09-03T10:05:52.134Z,51.17
2022-09-03T10:06:52.113Z,50.87
2022-09-03T10:07:52.112Z,50.55
2022-09-03T10:08:52.085Z,50.98
2022-09-03T10:09:52.084Z,51.27
2022-09-03T10:10:52.077Z,51.77
2022-09-03T10:11:52.324Z,50.57
2022-09-03T10:12:52.104Z,52.29
2022-09-03T10:13:53.095Z,52.02
2022-09-03T10:14:52.074Z,51.12
2022-09-03T10:15:52.043Z,51.82
2022-09-03T10:16:52.093Z,54.44
2022-09-03T10:17:52.023Z,53.71
2022-09-03T10:18:51.995Z,55.11
2022-09-03T10:19:52.008Z,54.41
2022-09-03T10:20:52.006Z,54.51
2022-09-03T10:21:51.927Z,54.01
2022-09-03T10:22:56.911Z,52.42
2022-09-03T10:23:52.956Z,53.22
2022-09-03T10:24:51.927Z,54.04
2022-09-03T10:25:52.969Z,53.24
2022-09-03T10:26:51.957Z,53.04
2022-09-03T10:27:51.907Z,53.06
2022-09-03T10:28:56.102Z,54.24
2022-09-03T10:29:52.897Z,53.96
2022-09-03T10:30:51.905Z,55.66
2022-09-03T10:31:51.888Z,55.76
2022-09-03T10:32:51.779Z,55.04
2022-09-03T10:33:51.831Z,54.53
2022-09-03T10:34:51.802Z,54.31
2022-09-03T10:35:51.821Z,54.21
2022-09-03T10:36:51.820Z,54.58
2022-09-03T10:37:51.754Z,51.17
2022-09-03T10:38:51.741Z,50.38
2022-09-03T10:39:52.569Z,52.17
2022-09-03T10:40:51.751Z,51.87
2022-09-03T10:41:51.753Z,54.13
2022-09-03T10:42:51.651Z,51.82
2022-09-03T10:43:51.635Z,51.22
2022-09-03T10:44:51.660Z,51.10
2022-09-03T10:45:51.701Z,49.68
2022-09-03T10:46:51.685Z,49.86
2022-09-03T10:47:51.613Z,49.74
2022-09-03T10:48:51.602Z,48.13
2022-09-03T10:49:51.594Z,48.69
2022-09-03T10:50:51.594Z,47.78
2022-09-03T10:51:51.526Z,48.57
2022-09-03T10:52:51.512Z,49.24
2022-09-03T10:53:51.555Z,48.23
2022-09-03T10:54:51.537Z,48.38
2022-09-03T10:55:51.555Z,49.35
2022-09-03T10:56:51.538Z,45.39
2022-09-03T10:57:51.459Z,45.23
2022-09-03T10:58:51.456Z,46.64
2022-09-03T10:59:51.447Z,46.74
2022-09-03T11:00:51.424Z,47.53
2022-09-03T11:01:51.526Z,46.64
2022-09-03T11:02:51.552Z,48.55
2022-09-03T11:03:51.381Z,49.34
2022-09-03T11:04:52.418Z,48.53
2022-09-03T11:05:51.399Z,49.62
2022-09-03T11:06:53.156Z,48.40
2022-09-03T11:07:51.457Z,46.72
2022-09-03T11:08:51.427Z,46.62
2022-09-03T11:09:51.332Z,46.42
2022-09-03T11:10:51.330Z,47.71
2022-09-03T11:11:51.290Z,46.89
2022-09-03T11:12:53.063Z,46.50
2022-09-03T11:13:51.362Z,46.11
2022-09-03T11:14:51.271Z,47.49
2022-09-03T11:15:52.363Z,46.70
2022-09-03T11:16:51.271Z,49.59
2022-09-03T11:17:51.315Z,46.92
2022-09-03T11:18:51.203Z,46.55
2022-09-03T11:19:51.181Z,49.19
2022-09-03T11:20:51.179Z,47.02
2022-09-03T11:21:51.214Z,48.21
2022-09-03T11:22:51.144Z,49.22
2022-09-03T11:23:55.024Z,47.96
2022-09-03T11:24:51.135Z,47.38
2022-09-03T11:25:51.131Z,49.27
2022-09-03T11:26:53.214Z,47.78
2022-09-03T11:27:55.882Z,49.46
2022-09-03T11:28:52.064Z,48.75
2022-09-03T11:29:51.174Z,47.96
2022-09-03T11:30:51.127Z,48.15
2022-09-03T11:31:51.066Z,48.05
2022-09-03T11:32:52.908Z,48.94
2022-09-03T11:33:51.085Z,50.23
2022-09-03T11:34:51.169Z,48.85
2022-09-03T11:35:50.996Z,51.30
2022-09-03T11:36:51.002Z,50.58
2022-09-03T11:37:51.037Z,50.48
2022-09-03T11:38:51.939Z,47.52
2022-09-03T11:39:50.986Z,47.81
2022-09-03T11:40:50.938Z,49.27
2022-09-03T11:41:50.940Z,49.25
2022-09-03T11:42:52.000Z,48.68
2022-09-03T11:43:50.963Z,50.06
2022-09-03T11:44:51.137Z,47.29
2022-09-03T11:45:50.879Z,48.68
2022-09-03T11:46:50.840Z,49.87
2022-09-03T11:47:50.910Z,50.85
2022-09-03T11:48:50.875Z,52.07
2022-09-03T11:49:50.795Z,50.36
2022-09-03T11:50:50.782Z,49.07
2022-09-03T11:51:50.801Z,48.77
2022-09-03T11:52:50.861Z,48.77
2022-09-03T11:53:50.824Z,49.47
2022-09-03T11:54:50.812Z,48.90
2022-09-03T11:55:51.744Z,49.84
2022-09-03T11:56:50.710Z,46.86
2022-09-03T11:57:50.774Z,44.89
2022-09-03T11:58:50.742Z,45.18
2022-09-03T11:59:50.666Z,47.57
2022-09-03T12:00:52.737Z,46.01
2022-09-03T12:01:50.659Z,47.62
2022-09-03T12:02:53.306Z,47.60
2022-09-03T12:03:50.675Z,46.39
2022-09-03T12:04:50.731Z,46.29
2022-09-03T12:05:50.694Z,45.93
2022-09-03T12:06:50.573Z,43.99
2022-09-03T12:07:50.586Z,44.49
2022-09-03T12:08:50.615Z,41.00
2022-09-03T12:09:50.557Z,40.01
2022-09-03T12:10:50.617Z,41.45
2022-09-03T12:11:50.556Z,39.33
2022-09-03T12:12:50.511Z,38.37
2022-09-03T12:13:50.549Z,38.51
2022-09-03T12:14:50.555Z,39.43
2022-09-03T12:15:50.623Z,39.69
2022-09-03T12:16:50.469Z,40.29
2022-09-03T12:17:50.449Z,40.19
2022-09-03T12:18:50.473Z,38.45
2022-09-03T12:19:50.491Z,37.83
2022-09-03T12:20:50.490Z,37.67
2022-09-03T12:21:50.491Z,37.46
2022-09-03T12:22:50.579Z,38.61
2022-09-03T12:23:50.476Z,36.47
2022-09-03T12:24:50.402Z,35.72
2022-09-03T12:25:50.429Z,36.49
2022-09-03T12:26:50.422Z,35.88
2022-09-03T12:27:50.368Z,36.11
2022-09-03T12:30:00.646Z,41.02
2022-09-03T12:31:00.613Z,38.96
2022-09-03T12:32:00.592Z,39.09
2022-09-03T12:33:00.524Z,41.21
2022-09-03T12:34:00.483Z,41.07
2022-09-03T12:36:01.442Z,37.87
2022-09-03T12:37:00.525Z,38.02
2022-09-03T12:38:05.229Z,35.96
2022-09-03T12:39:11.447Z,35.30
2022-09-03T12:40:07.741Z,37.07
2022-09-03T12:42:01.367Z,37.17
2022-09-03T12:44:01.364Z,35.67
2022-09-03T12:45:00.339Z,35.18
2022-09-03T12:46:17.810Z,37.23
2022-09-03T12:48:01.410Z,35.69
2022-09-03T12:49:30.534Z,36.49
2022-09-03T12:50:01.271Z,36.66
2022-09-03T12:51:47.190Z,37.12
2022-09-03T12:52:05.433Z,35.63
2022-09-03T12:53:01.298Z,36.43
2022-09-03T12:54:00.287Z,36.74
2022-09-03T12:55:00.241Z,35.67
2022-09-03T12:56:00.260Z,37.54
2022-09-03T12:57:00.261Z,38.32
2022-09-03T12:58:02.557Z,38.35
2022-09-03T12:59:00.301Z,37.55
2022-09-03T13:00:00.188Z,38.60
2022-09-03T13:01:00.210Z,40.55
2022-09-03T13:02:00.374Z,42.86
2022-09-03T13:03:03.412Z,44.51
2022-09-03T13:04:01.133Z,44.25
2022-09-03T13:05:00.114Z,47.45
2022-09-03T13:06:00.129Z,48.98
2022-09-03T13:07:00.128Z,48.02
2022-09-03T13:08:00.164Z,48.16
2022-09-03T13:09:00.144Z,48.28
2022-09-03T13:10:00.048Z,49.00
2022-09-03T13:11:00.026Z,50.81
2022-09-03T13:11:59.999Z,51.52
2022-09-03T13:13:00.009Z,53.80
2022-09-03T13:13:59.986Z,54.32
2022-09-03T13:15:00.078Z,54.42
2022-09-03T13:15:59.987Z,52.37
2022-09-03T13:17:00.291Z,51.32
2022-09-03T13:18:00.026Z,52.26
2022-09-03T13:19:00.006Z,55.44
2022-09-03T13:20:00.000Z,57.36
2022-09-03T13:20:59.920Z,55.97
2022-09-03T13:21:59.921Z,55.38
2022-09-03T13:22:59.964Z,55.77
2022-09-03T13:23:59.938Z,57.06
2022-09-03T13:24:59.943Z,55.97
2022-09-03T13:26:03.979Z,54.28
2022-09-03T13:27:00.815Z,56.07
2022-09-03T13:27:59.827Z,55.90